createdAt,value
2018-07-17T00:00:14.008Z,97709.09
2018-07-17T00:01:17.592Z,97709.62
2018-07-17T00:02:21.403Z,97694.53
2018-07-17T00:03:23.995Z,97711.94
2018-07-17T00:04:26.611Z,97712.05
2018-07-17T00:05:29.382Z,97710.50
2018-07-17T00:06:31.890Z,97712.36
2018-07-17T00:07:34.717Z,97707.14
2018-07-17T00:08:37.212Z,97713.32
2018-07-17T00:09:39.810Z,97707.08
2018-07-17T00:10:42.304Z,97708.40
2018-07-17T00:11:44.823Z,97709.69
2018-07-17T00:12:47.366Z,97709.87
2018-07-17T00:13:50.779Z,97710.26
2018-07-17T00:14:53.477Z,97712.54
2018-07-17T00:15:56.019Z,97706.27
2018-07-17T00:16:58.515Z,97703.02
2018-07-17T00:18:01.033Z,97704.26
2018-07-17T00:19:03.559Z,97706.25
2018-07-17T00:20:06.350Z,97705.86
2018-07-17T00:21:08.855Z,97704.14
2018-07-17T00:22:11.350Z,97698.80
2018-07-17T00:23:14.870Z,97704.92
2018-07-17T00:24:17.382Z,97701.74
2018-07-17T00:25:20.892Z,97707.00
2018-07-17T00:26:23.802Z,97702.88
2018-07-17T00:27:26.324Z,97705.07
2018-07-17T00:28:28.816Z,97704.33
2018-07-17T00:29:31.344Z,97707.67
2018-07-17T00:30:34.455Z,97703.08
2018-07-17T00:31:36.977Z,97709.66
2018-07-17T00:32:39.764Z,97705.86
2018-07-17T00:33:42.309Z,97707.59
2018-07-17T00:34:44.808Z,97708.92
2018-07-17T00:35:47.321Z,97697.39
2018-07-17T00:36:49.834Z,97705.39
2018-07-17T00:37:52.357Z,97696.64
2018-07-17T00:38:55.173Z,97698.80
2018-07-17T00:39:57.682Z,97694.53
2018-07-17T00:41:00.227Z,97692.33
2018-07-17T00:42:02.732Z,97694.06
2018-07-17T00:43:05.227Z,97697.20
2018-07-17T00:44:07.741Z,97692.25
2018-07-17T00:45:10.540Z,97694.73
2018-07-17T00:46:13.051Z,97700.66
2018-07-17T00:47:15.598Z,97698.38
2018-07-17T00:48:18.125Z,97696.93
2018-07-17T00:49:20.614Z,97701.86
2018-07-17T00:50:23.119Z,97700.64
2018-07-17T00:51:25.628Z,97696.19
2018-07-17T00:52:28.130Z,97700.66
2018-07-17T00:53:30.634Z,97697.25
2018-07-17T00:54:33.130Z,97697.34
2018-07-17T00:55:36.247Z,97698.98
2018-07-17T00:56:38.794Z,97688.05
2018-07-17T00:57:42.328Z,97703.67
2018-07-17T00:58:44.829Z,97704.91
2018-07-17T00:59:47.353Z,97704.66
2018-07-17T01:00:49.907Z,97709.25
2018-07-17T01:01:52.446Z,97702.39
2018-07-17T01:02:54.962Z,97707.45
2018-07-17T01:03:57.781Z,97697.84
2018-07-17T01:05:00.336Z,97702.32
2018-07-17T01:06:03.465Z,97704.33
2018-07-17T01:07:06.035Z,97702.44
2018-07-17T01:08:08.549Z,97704.59
2018-07-17T01:09:11.064Z,97706.66
2018-07-17T01:10:13.882Z,97704.38
2018-07-17T01:11:16.396Z,97706.27
2018-07-17T01:12:18.894Z,97702.27
2018-07-17T01:13:21.387Z,97702.85
2018-07-17T01:14:23.911Z,97705.05
2018-07-17T01:15:26.409Z,97709.52
2018-07-17T01:16:29.214Z,97709.05
2018-07-17T01:17:31.719Z,97703.23
2018-07-17T01:18:34.382Z,97699.71
2018-07-17T01:19:38.069Z,97702.58
2018-07-17T01:20:40.580Z,97699.80
2018-07-17T01:21:43.084Z,97692.06
2018-07-17T01:22:45.883Z,97693.98
2018-07-17T01:23:48.435Z,97687.31
2018-07-17T01:24:50.926Z,97691.30
2018-07-17T01:25:54.072Z,97691.73
2018-07-17T01:26:56.577Z,97695.28
2018-07-17T01:27:59.081Z,97694.88
2018-07-17T01:29:01.965Z,97699.84
2018-07-17T01:30:04.515Z,97699.00
2018-07-17T01:31:07.048Z,97697.06
2018-07-17T01:32:09.577Z,97697.56
2018-07-17T01:33:12.074Z,97691.97
2018-07-17T01:34:14.575Z,97696.67
2018-07-17T01:35:17.345Z,97693.62
2018-07-17T01:36:19.856Z,97692.80
2018-07-17T01:37:22.393Z,97694.28
2018-07-17T01:38:24.922Z,97698.12
2018-07-17T01:39:27.457Z,97695.65
2018-07-17T01:40:29.979Z,97702.13
2018-07-17T01:41:33.783Z,97694.89
2018-07-17T01:42:36.398Z,97695.26
2018-07-17T01:43:38.916Z,97694.33
2018-07-17T01:44:41.436Z,97695.17
2018-07-17T01:45:43.949Z,97662.09
2018-07-17T01:46:46.442Z,97695.95
2018-07-17T01:47:49.242Z,97694.05
2018-07-17T01:48:51.773Z,97695.68
2018-07-17T01:49:54.294Z,97697.09
2018-07-17T01:50:56.792Z,97697.02
2018-07-17T01:51:59.308Z,97696.80
2018-07-17T01:53:01.814Z,97696.82
2018-07-17T01:54:04.634Z,97700.33
2018-07-17T01:55:07.160Z,97697.20
2018-07-17T01:56:09.685Z,97695.94
2018-07-17T01:57:12.185Z,97690.92
2018-07-17T01:58:14.684Z,97632.66
2018-07-17T01:59:17.214Z,97695.36
2018-07-17T02:00:20.020Z,97694.44
2018-07-17T02:01:22.692Z,97691.56
2018-07-17T02:02:25.210Z,97689.38
2018-07-17T02:03:27.721Z,97691.94
2018-07-17T02:04:30.252Z,97694.23
2018-07-17T02:05:32.763Z,97693.53
2018-07-17T02:06:35.567Z,97686.28
2018-07-17T02:07:38.104Z,97681.89
2018-07-17T02:08:40.649Z,97687.97
2018-07-17T02:09:44.088Z,97685.56
2018-07-17T02:10:47.993Z,97689.38
2018-07-17T02:11:51.137Z,97689.14
2018-07-17T02:12:54.365Z,97695.26
2018-07-17T02:13:57.775Z,97691.28
2018-07-17T02:15:00.436Z,97692.23
2018-07-17T02:16:02.927Z,97699.28
2018-07-17T02:17:05.721Z,97694.34
2018-07-17T02:18:08.631Z,97669.01
2018-07-17T02:19:11.713Z,97696.98
2018-07-17T02:20:14.534Z,97698.00
2018-07-17T02:21:17.515Z,97702.12
2018-07-17T02:22:20.589Z,97702.31
2018-07-17T02:23:23.758Z,97700.31
2018-07-17T02:24:26.814Z,97700.59
2018-07-17T02:25:29.317Z,97701.14
2018-07-17T02:26:32.428Z,97700.04
2018-07-17T02:27:35.574Z,97700.98
2018-07-17T02:28:38.303Z,97696.31
2018-07-17T02:29:40.816Z,97693.45
2018-07-17T02:30:43.323Z,97693.53
2018-07-17T02:31:46.146Z,97699.65
2018-07-17T02:32:49.261Z,97697.06
2018-07-17T02:33:53.231Z,97693.34
2018-07-17T02:34:56.311Z,97694.67
2018-07-17T02:35:59.366Z,97698.40
2018-07-17T02:37:01.870Z,97694.28
2018-07-17T02:38:05.696Z,97695.17
2018-07-17T02:39:09.329Z,97698.70
2018-07-17T02:40:12.070Z,97694.70
2018-07-17T02:41:14.979Z,97702.31
2018-07-17T02:42:17.629Z,97700.23
2018-07-17T02:43:20.503Z,97706.50
2018-07-17T02:44:23.699Z,97700.86
2018-07-17T02:45:26.216Z,97700.23
2018-07-17T02:46:29.120Z,97700.78
2018-07-17T02:47:32.332Z,97701.45
2018-07-17T02:48:34.863Z,97702.50
2018-07-17T02:49:37.907Z,97700.23
2018-07-17T02:50:40.703Z,97702.34
2018-07-17T02:51:43.186Z,97698.70
2018-07-17T02:52:46.264Z,97698.20
2018-07-17T02:53:49.205Z,97702.52
2018-07-17T02:54:51.734Z,97702.34
2018-07-17T02:55:54.252Z,97700.42
2018-07-17T02:56:57.035Z,97698.90
2018-07-17T02:57:59.516Z,97697.76
2018-07-17T02:59:02.014Z,97674.42
2018-07-17T03:00:04.508Z,97696.98
2018-07-17T03:01:07.035Z,97699.45
2018-07-17T03:02:10.115Z,97702.89
2018-07-17T03:03:13.109Z,97694.25
2018-07-17T03:04:15.679Z,97699.73
2018-07-17T03:05:20.659Z,97683.50
2018-07-17T03:06:23.145Z,97697.74
2018-07-17T03:07:25.649Z,97701.95
2018-07-17T03:08:28.169Z,97705.56
2018-07-17T03:09:30.948Z,97709.38
2018-07-17T03:10:33.461Z,97705.75
2018-07-17T03:11:35.965Z,97707.27
2018-07-17T03:12:38.510Z,97707.74
2018-07-17T03:13:40.994Z,97703.58
2018-07-17T03:14:43.501Z,97707.84
2018-07-17T03:15:46.352Z,97705.54
2018-07-17T03:16:48.915Z,97710.42
2018-07-17T03:17:51.464Z,97710.69
2018-07-17T03:18:53.978Z,97711.44
2018-07-17T03:19:56.491Z,97715.45
2018-07-17T03:20:59.021Z,97706.42
2018-07-17T03:22:01.874Z,97709.66
2018-07-17T03:23:04.390Z,97704.98
2018-07-17T03:24:06.924Z,97713.91
2018-07-17T03:25:09.456Z,97707.73
2018-07-17T03:26:11.970Z,97711.45
2018-07-17T03:27:14.493Z,97715.84
2018-07-17T03:28:17.304Z,97709.73
2018-07-17T03:29:19.823Z,97714.00
2018-07-17T03:30:22.366Z,97713.17
2018-07-17T03:31:24.873Z,97717.55
2018-07-17T03:32:27.401Z,97709.47
2018-07-17T03:33:29.905Z,97707.08
2018-07-17T03:34:32.693Z,97710.50
2018-07-17T03:35:35.202Z,97706.59
2018-07-17T03:36:37.708Z,97707.07
2018-07-17T03:37:40.244Z,97708.04
2018-07-17T03:38:42.744Z,97707.57
2018-07-17T03:39:45.275Z,97708.79
2018-07-17T03:40:49.024Z,97705.92
2018-07-17T03:41:51.547Z,97709.17
2018-07-17T03:42:54.101Z,97710.03
2018-07-17T03:43:56.621Z,97705.08
2018-07-17T03:44:59.673Z,97707.84
2018-07-17T03:46:02.189Z,97709.16
2018-07-17T03:47:05.632Z,97706.70
2018-07-17T03:48:08.147Z,97704.80
2018-07-17T03:49:10.675Z,97706.03
2018-07-17T03:50:13.186Z,97707.37
2018-07-17T03:51:15.706Z,97710.09
2018-07-17T03:52:18.439Z,97711.55
2018-07-17T03:53:22.950Z,97711.25
2018-07-17T03:54:25.680Z,97714.69
2018-07-17T03:55:28.195Z,97711.35
2018-07-17T03:56:31.308Z,97717.41
2018-07-17T03:57:33.814Z,97715.44
2018-07-17T03:58:36.347Z,97713.81
2018-07-17T03:59:39.228Z,97713.73
2018-07-17T04:00:41.788Z,97715.56
2018-07-17T04:01:44.315Z,97718.89
2018-07-17T04:02:46.903Z,97718.02
2018-07-17T04:03:49.437Z,97713.16
2018-07-17T04:04:51.942Z,97714.87
2018-07-17T04:05:55.455Z,97715.25
2018-07-17T04:06:58.711Z,97717.14
2018-07-17T04:08:05.341Z,97723.05
2018-07-17T04:09:08.074Z,97722.02
2018-07-17T04:10:10.821Z,97719.31
2018-07-17T04:11:13.495Z,97711.50
2018-07-17T04:12:16.401Z,97722.18
2018-07-17T04:14:29.534Z,97723.61
2018-07-17T04:15:33.179Z,97727.43
2018-07-17T04:16:36.073Z,97727.01
2018-07-17T04:17:38.751Z,97726.28
2018-07-17T04:18:41.588Z,97724.69
2018-07-17T04:19:44.129Z,97729.33
2018-07-17T04:20:46.673Z,97725.45
2018-07-17T04:21:49.183Z,97731.53
2018-07-17T04:22:51.713Z,97731.33
2018-07-17T04:23:54.409Z,97731.03
2018-07-17T04:24:57.436Z,97732.39
2018-07-17T04:25:59.987Z,97731.81
2018-07-17T04:27:02.508Z,97690.61
2018-07-17T04:28:05.060Z,97730.30
2018-07-17T04:29:07.571Z,97726.77
2018-07-17T04:30:10.070Z,97728.57
2018-07-17T04:31:12.992Z,97723.63
2018-07-17T04:32:15.498Z,97730.01
2018-07-17T04:33:17.994Z,97733.53
2018-07-17T04:34:20.640Z,97730.77
2018-07-17T04:35:23.373Z,97735.32
2018-07-17T04:36:25.902Z,97743.02
2018-07-17T04:37:28.712Z,97741.33
2018-07-17T04:38:31.292Z,97737.63
2018-07-17T04:39:33.775Z,97742.66
2018-07-17T04:40:36.283Z,97736.39
2018-07-17T04:41:38.786Z,97737.53
2018-07-17T04:42:41.287Z,97743.05
2018-07-17T04:43:45.299Z,97735.05
2018-07-17T04:44:47.843Z,97735.92
2018-07-17T04:45:50.683Z,97737.14
2018-07-17T04:46:53.290Z,97735.05
2018-07-17T04:47:56.012Z,97738.84
2018-07-17T04:48:59.078Z,97736.11
2018-07-17T04:50:01.866Z,97734.12
2018-07-17T04:51:04.392Z,97739.62
2018-07-17T04:52:06.920Z,97736.56
2018-07-17T04:53:09.458Z,97740.55
2018-07-17T04:54:11.978Z,97739.23
2018-07-17T04:55:14.511Z,97738.10
2018-07-17T04:56:17.329Z,97737.98
2018-07-17T04:57:19.864Z,97742.95
2018-07-17T04:58:22.397Z,97740.38
2018-07-17T04:59:24.916Z,97741.23
2018-07-17T05:00:27.468Z,97734.38
2018-07-17T05:01:30.022Z,97741.14
2018-07-17T05:02:32.823Z,97739.31
2018-07-17T05:03:35.353Z,97745.86
2018-07-17T05:04:37.862Z,97746.56
2018-07-17T05:05:40.356Z,97744.94
2018-07-17T05:06:42.856Z,97748.45
2018-07-17T05:07:45.954Z,97743.22
2018-07-17T05:08:48.786Z,97748.35
2018-07-17T05:09:51.286Z,97747.41
2018-07-17T05:10:53.782Z,97748.72
2018-07-17T05:11:56.300Z,97752.64
2018-07-17T05:12:58.919Z,97727.98
2018-07-17T05:14:02.012Z,97751.42
2018-07-17T05:15:05.475Z,97754.94
2018-07-17T05:16:08.858Z,97762.55
2018-07-17T05:17:14.576Z,97760.84
2018-07-17T05:18:17.961Z,97756.63
2018-07-17T05:19:20.488Z,97763.01
2018-07-17T05:20:23.058Z,97755.78
2018-07-17T05:21:26.083Z,97760.05
2018-07-17T05:22:28.782Z,97762.36
2018-07-17T05:23:31.463Z,97761.48
2018-07-17T05:24:34.989Z,97766.26
2018-07-17T05:25:37.508Z,97764.16
2018-07-17T05:26:40.010Z,97769.70
2018-07-17T05:27:43.804Z,97766.17
2018-07-17T05:28:47.024Z,97767.22
2018-07-17T05:29:49.600Z,97759.98
2018-07-17T05:30:52.125Z,97733.98
2018-07-17T05:31:57.732Z,97764.26
2018-07-17T05:33:01.579Z,97764.83
2018-07-17T05:34:07.708Z,97770.94
2018-07-17T05:35:12.397Z,97770.66
2018-07-17T05:36:15.160Z,97773.14
2018-07-17T05:37:18.463Z,97772.73
2018-07-17T05:38:21.762Z,97774.47
2018-07-17T05:39:25.720Z,97774.83
2018-07-17T05:40:29.244Z,97773.34
2018-07-17T05:41:31.978Z,97773.34
2018-07-17T05:42:34.498Z,97773.55
2018-07-17T05:43:37.479Z,97772.08
2018-07-17T05:44:40.155Z,97771.02
2018-07-17T05:45:42.759Z,97772.73
2018-07-17T05:46:45.576Z,97775.59
2018-07-17T05:47:49.122Z,97771.78
2018-07-17T05:48:51.653Z,97772.34
2018-07-17T05:49:54.262Z,97773.68
2018-07-17T05:50:57.021Z,97770.94
2018-07-17T05:51:59.685Z,97776.95
2018-07-17T05:53:06.161Z,97780.28
2018-07-17T05:54:08.980Z,97785.61
2018-07-17T05:55:12.146Z,97783.23
2018-07-17T05:56:15.637Z,97789.53
2018-07-17T05:57:19.502Z,97782.20
2018-07-17T05:58:22.330Z,97781.48
2018-07-17T05:59:26.431Z,97779.80
2018-07-17T06:00:29.140Z,97778.23
2018-07-17T06:01:33.358Z,97779.56
2018-07-17T06:02:36.841Z,97780.50
2018-07-17T06:03:45.815Z,97786.27
2018-07-17T06:04:49.608Z,97788.27
2018-07-17T06:05:52.518Z,97786.27
2018-07-17T06:06:55.176Z,97784.39
2018-07-17T06:07:57.696Z,97789.34
2018-07-17T06:09:00.279Z,97789.89
2018-07-17T06:10:03.500Z,97793.03
2018-07-17T06:11:07.805Z,97795.52
2018-07-17T06:12:10.382Z,97793.20
2018-07-17T06:13:12.884Z,97790.79
2018-07-17T06:14:15.406Z,97790.25
2018-07-17T06:15:17.920Z,97790.54
2018-07-17T06:16:20.717Z,97788.91
2018-07-17T06:17:23.338Z,97789.61
2018-07-17T06:18:26.975Z,97793.84
2018-07-17T06:19:29.950Z,97789.09
2018-07-17T06:20:32.661Z,97781.44
2018-07-17T06:21:35.257Z,97785.34
2018-07-17T06:22:38.172Z,97784.77
2018-07-17T06:23:40.801Z,97785.71
2018-07-17T06:24:43.717Z,97782.23
2018-07-17T06:25:46.285Z,97787.16
2018-07-17T06:26:50.448Z,97781.39
2018-07-17T06:27:54.669Z,97785.29
2018-07-17T06:29:00.731Z,97788.00
2018-07-17T06:30:03.282Z,97784.33
2018-07-17T06:31:05.831Z,97746.04
2018-07-17T06:32:08.516Z,97778.62
2018-07-17T06:33:11.196Z,97784.38
2018-07-17T06:34:13.948Z,97787.91
2018-07-17T06:35:16.842Z,97794.20
2018-07-17T06:36:19.359Z,97792.09
2018-07-17T06:37:23.658Z,97796.42
2018-07-17T06:38:26.355Z,97789.47
2018-07-17T06:39:29.325Z,97792.48
2018-07-17T06:40:31.833Z,97796.84
2018-07-17T06:41:35.382Z,97794.12
2018-07-17T06:42:38.995Z,97802.53
2018-07-17T06:43:42.312Z,97804.85
2018-07-17T06:44:48.375Z,97812.76
2018-07-17T06:46:59.709Z,97814.37
2018-07-17T06:48:02.211Z,97813.32
2018-07-17T06:49:04.723Z,97811.41
2018-07-17T06:50:07.338Z,97811.52
2018-07-17T06:51:11.959Z,97804.20
2018-07-17T06:52:14.573Z,97808.89
2018-07-17T06:53:17.264Z,97809.62
2018-07-17T06:54:19.772Z,97811.80
2018-07-17T06:55:22.464Z,97807.48
2018-07-17T06:56:29.627Z,97816.26
2018-07-17T06:57:32.920Z,97812.48
2018-07-17T06:58:37.273Z,97812.92
2018-07-17T06:59:39.914Z,97812.75
2018-07-17T07:00:42.435Z,97811.84
2018-07-17T07:01:44.975Z,97808.67
2018-07-17T07:02:47.788Z,97814.17
2018-07-17T07:03:50.312Z,97812.61
2018-07-17T07:04:54.158Z,97810.75
2018-07-17T07:05:57.971Z,97773.94
2018-07-17T07:07:00.477Z,97814.29
2018-07-17T07:08:04.694Z,97822.42
2018-07-17T07:09:08.902Z,97825.42
2018-07-17T07:10:11.406Z,97815.17
2018-07-17T07:11:15.289Z,97820.72
2018-07-17T07:12:17.773Z,97818.45
2018-07-17T07:13:20.483Z,97822.02
2018-07-17T07:14:23.494Z,97820.61
2018-07-17T07:15:26.056Z,97812.22
2018-07-17T07:16:28.579Z,97815.69
2018-07-17T07:17:31.573Z,97813.77
2018-07-17T07:18:34.115Z,97814.27
2018-07-17T07:19:36.655Z,97810.47
2018-07-17T07:20:40.154Z,97804.58
2018-07-17T07:21:43.479Z,97807.98
2018-07-17T07:22:45.967Z,97776.73
2018-07-17T07:23:49.010Z,97808.88
2018-07-17T07:24:51.538Z,97812.61
2018-07-17T07:25:54.040Z,97806.25
2018-07-17T07:26:56.551Z,97811.53
2018-07-17T07:27:59.935Z,97804.82
2018-07-17T07:29:03.092Z,97808.59
2018-07-17T07:30:06.011Z,97805.87
2018-07-17T07:31:08.516Z,97804.43
2018-07-17T07:32:11.150Z,97808.60
2018-07-17T07:33:14.264Z,97813.44
2018-07-17T07:34:16.761Z,97809.72
2018-07-17T07:35:19.286Z,97807.07
2018-07-17T07:36:22.052Z,97806.95
2018-07-17T07:37:24.645Z,97805.32
2018-07-17T07:38:27.121Z,97808.45
2018-07-17T07:39:29.621Z,97801.98
2018-07-17T07:40:32.672Z,97799.60
2018-07-17T07:41:35.209Z,97807.70
2018-07-17T07:42:38.207Z,97809.66
2018-07-17T07:43:40.734Z,97811.07
2018-07-17T07:44:43.364Z,97770.05
2018-07-17T07:45:46.502Z,97804.38
2018-07-17T07:46:48.996Z,97808.51
2018-07-17T07:47:51.574Z,97804.31
2018-07-17T07:48:54.430Z,97809.48
2018-07-17T07:49:56.962Z,97811.65
2018-07-17T07:50:59.563Z,97810.14
2018-07-17T07:52:02.214Z,97807.44
2018-07-17T07:53:04.783Z,97812.91
2018-07-17T07:54:08.226Z,97816.59
2018-07-17T07:55:11.596Z,97812.09
2018-07-17T07:56:14.135Z,97814.50
2018-07-17T07:57:16.704Z,97815.36
2018-07-17T07:58:19.222Z,97815.17
2018-07-17T07:59:22.403Z,97820.31
2018-07-17T08:00:24.954Z,97821.23
2018-07-17T08:01:27.828Z,97822.95
2018-07-17T08:02:30.335Z,97820.45
2018-07-17T08:03:32.865Z,97824.13
2018-07-17T08:04:35.422Z,97818.60
2018-07-17T08:05:39.554Z,97819.33
2018-07-17T08:06:42.058Z,97817.61
2018-07-17T08:07:44.893Z,97816.13
2018-07-17T08:08:47.430Z,97816.12
2018-07-17T08:09:49.959Z,97814.80
2018-07-17T08:10:52.476Z,97815.98
2018-07-17T08:16:22.292Z,97813.47
2018-07-17T08:17:24.797Z,97814.93
2018-07-17T08:18:27.390Z,97810.00
2018-07-17T08:19:31.114Z,97812.55
2018-07-17T08:22:02.088Z,97815.02
2018-07-17T08:23:05.358Z,97786.86
2018-07-17T08:24:07.884Z,97818.35
2018-07-17T08:25:10.926Z,97811.38
2018-07-17T08:26:13.579Z,97809.45
2018-07-17T08:27:17.313Z,97810.71
2018-07-17T08:28:19.818Z,97810.59
2018-07-17T08:29:22.334Z,97816.91
2018-07-17T08:30:25.868Z,97808.44
2018-07-17T08:31:28.393Z,97816.05
2018-07-17T08:32:31.420Z,97806.71
2018-07-17T08:33:34.253Z,97814.05
2018-07-17T08:34:36.902Z,97817.96
2018-07-17T08:35:39.447Z,97814.52
2018-07-17T08:36:42.457Z,97813.30
2018-07-17T08:37:45.008Z,97810.72
2018-07-17T08:38:47.524Z,97811.19
2018-07-17T08:39:50.340Z,97813.66
2018-07-17T08:40:52.847Z,97591.91
2018-07-17T08:41:55.359Z,97816.88
2018-07-17T08:42:57.890Z,97685.30
2018-07-17T08:44:00.409Z,97808.68
2018-07-17T08:45:02.932Z,97812.29
2018-07-17T08:46:06.343Z,97808.09
2018-07-17T08:47:08.848Z,97808.88
2018-07-17T08:48:11.365Z,97807.53
2018-07-17T08:49:17.492Z,97807.42
2018-07-17T08:50:20.068Z,97808.28
2018-07-17T08:51:22.584Z,97812.95
2018-07-17T08:52:25.390Z,97811.11
2018-07-17T08:53:30.086Z,97809.77
2018-07-17T08:54:32.676Z,97809.50
2018-07-17T08:55:35.178Z,97809.30
2018-07-17T08:56:37.735Z,97814.44
2018-07-17T08:57:41.181Z,97819.58
2018-07-17T08:58:43.983Z,97817.30
2018-07-17T08:59:47.416Z,97818.05
2018-07-17T09:00:50.027Z,97814.52
2018-07-17T09:01:52.559Z,97815.66
2018-07-17T09:02:55.072Z,97812.59
2018-07-17T09:03:58.216Z,97813.58
2018-07-17T09:05:02.085Z,97813.84
2018-07-17T09:06:05.214Z,97815.45
2018-07-17T09:07:07.832Z,97813.65
2018-07-17T09:08:10.457Z,97810.30
2018-07-17T09:09:14.498Z,97805.52
2018-07-17T09:10:17.330Z,97809.59
2018-07-17T09:11:20.151Z,97813.31
2018-07-17T09:12:22.709Z,97815.13
2018-07-17T09:13:25.228Z,97813.59
2018-07-17T09:14:27.747Z,97813.59
2018-07-17T09:15:30.244Z,97810.06
2018-07-17T09:16:32.777Z,97810.53
2018-07-17T09:17:36.335Z,97804.52
2018-07-17T09:18:40.555Z,97811.94
2018-07-17T09:19:43.321Z,97815.00
2018-07-17T09:20:45.940Z,97794.44
2018-07-17T11:41:27.912Z,97811.62
2018-07-17T11:42:30.487Z,97809.47
2018-07-17T11:43:33.824Z,97814.69
2018-07-17T12:39:13.004Z,97793.20
2018-07-17T12:40:15.767Z,97567.20
2018-07-17T12:41:18.571Z,97803.86
2018-07-17T12:42:21.329Z,97808.12
2018-07-17T12:43:32.094Z,97799.71
2018-07-17T12:48:04.581Z,97796.63
2018-07-17T12:49:15.963Z,97791.55
2018-07-17T12:50:20.731Z,97798.97
2018-07-17T12:52:30.730Z,97788.92
2018-07-17T12:53:33.389Z,97785.66
2018-07-17T13:17:31.228Z,97785.50
2018-07-17T13:18:34.452Z,97783.09
2018-07-17T13:19:38.112Z,97623.38
2018-07-17T13:20:41.559Z,97786.74
2018-07-17T13:21:45.362Z,97786.36
2018-07-17T13:22:49.326Z,97787.69
2018-07-17T13:23:52.025Z,97788.91
2018-07-17T18:25:14.009Z,97923.39
2018-07-17T18:26:16.546Z,97949.51
2018-07-17T18:27:23.351Z,97915.06
2018-07-17T18:28:27.628Z,97923.78
2018-07-17T18:29:30.406Z,97944.88
2018-07-17T18:30:34.173Z,97940.55
2018-07-17T18:31:36.959Z,97948.16
2018-07-17T18:32:39.561Z,97934.45
2018-07-17T18:33:42.276Z,97938.01
2018-07-17T18:34:45.612Z,97902.85
2018-07-17T18:35:48.262Z,97921.70
2018-07-17T18:36:51.327Z,97928.50
2018-07-17T18:37:53.981Z,97930.81
2018-07-17T18:38:56.558Z,97940.99
2018-07-17T18:39:59.974Z,97976.04
2018-07-17T18:41:02.592Z,97940.11
2018-07-17T18:42:05.204Z,97935.06
2018-07-17T18:43:09.422Z,97944.78
2018-07-17T18:44:12.507Z,97953.92
2018-07-17T18:45:15.320Z,97950.14
2018-07-17T18:46:17.850Z,97947.25
2018-07-17T18:47:20.434Z,97957.45
2018-07-17T18:48:23.019Z,97950.77
2018-07-17T18:49:25.907Z,97954.95
2018-07-17T18:50:28.585Z,97949.15
2018-07-17T18:51:33.383Z,97830.20
2018-07-17T18:52:36.974Z,97911.70
2018-07-17T18:53:39.533Z,97959.16
2018-07-17T18:54:42.942Z,97956.59
2018-07-17T18:55:46.803Z,97957.52
2018-07-17T18:56:49.334Z,97957.63
2018-07-17T18:57:51.957Z,97956.10
2018-07-17T18:58:54.699Z,97958.09
2018-07-17T18:59:57.312Z,97958.37
2018-07-17T19:34:43.640Z,97986.45
2018-07-17T19:35:46.373Z,97801.37
2018-07-17T19:36:50.430Z,97982.66
2018-07-17T19:37:55.284Z,97986.28
2018-07-17T19:38:57.870Z,97990.20
2018-07-17T19:40:04.657Z,97990.96
2018-07-17T19:41:08.490Z,97997.22
2018-07-17T19:42:13.034Z,97997.58
2018-07-17T19:43:16.397Z,97997.77
2018-07-17T19:44:21.212Z,97990.73
2018-07-17T19:45:27.531Z,98001.97
2018-07-17T19:46:33.470Z,98002.26
2018-07-17T19:47:38.406Z,98002.54
2018-07-17T19:48:49.469Z,98005.96
2018-07-17T19:51:01.929Z,98003.66
2018-07-17T19:52:08.740Z,98005.20
2018-07-17T19:53:13.538Z,98006.16
2018-07-17T19:54:17.230Z,98002.55
2018-07-17T19:55:20.300Z,97999.12
2018-07-17T19:56:24.331Z,98006.74
2018-07-17T19:57:29.524Z,98010.56
2018-07-17T19:58:33.154Z,98008.25
2018-07-17T19:59:36.078Z,98012.06
2018-07-17T20:01:52.822Z,98015.22
2018-07-17T20:02:56.368Z,98024.45
2018-07-17T20:03:59.296Z,98021.19
2018-07-17T20:05:02.059Z,98029.43
2018-07-17T20:06:07.617Z,98020.08
2018-07-17T20:07:10.412Z,98030.66
2018-07-17T20:08:18.496Z,98016.08
2018-07-17T20:09:25.055Z,98021.30
2018-07-17T20:10:29.564Z,98019.03
2018-07-17T20:11:35.419Z,98016.44
2018-07-17T20:12:38.658Z,97945.53
2018-07-17T20:13:41.256Z,98022.84
2018-07-17T20:14:43.819Z,98017.00
2018-07-17T20:15:49.557Z,97835.70
2018-07-17T20:16:53.289Z,98011.66
2018-07-17T20:17:56.848Z,98007.37
2018-07-17T20:18:59.518Z,98011.37
2018-07-17T20:20:05.157Z,98010.43
2018-07-17T20:21:09.552Z,98003.36
2018-07-17T20:22:12.388Z,98003.28
2018-07-17T20:23:20.167Z,98009.59
2018-07-17T20:24:25.003Z,98011.28
2018-07-17T20:25:28.276Z,98004.61
2018-07-17T20:26:32.070Z,97830.16
2018-07-17T20:28:47.771Z,98004.42
2018-07-17T20:29:56.389Z,98003.08
2018-07-17T20:30:59.651Z,98008.81
2018-07-17T20:32:05.086Z,98008.70
2018-07-17T20:33:08.276Z,98002.72
2018-07-17T20:34:10.937Z,98000.41
2018-07-17T20:35:13.446Z,97997.67
2018-07-17T20:36:16.341Z,97993.74
2018-07-17T20:37:19.219Z,97726.11
2018-07-17T20:38:21.792Z,97838.44
2018-07-17T20:39:24.337Z,97993.55
2018-07-17T20:40:26.896Z,97994.49
2018-07-17T20:41:29.600Z,97993.86
2018-07-17T20:42:32.434Z,97995.19
2018-07-17T20:43:35.267Z,97998.30
2018-07-17T20:44:38.933Z,98001.36
2018-07-17T20:45:42.111Z,97998.89
2018-07-17T20:46:44.784Z,98002.42
2018-07-17T20:47:47.416Z,98005.18
2018-07-17T20:48:51.815Z,98009.97
2018-07-17T20:49:55.798Z,98013.61
2018-07-17T20:50:58.771Z,98025.24
2018-07-17T20:52:01.351Z,98029.14
2018-07-17T20:53:08.647Z,98035.88
2018-07-17T20:54:11.712Z,98024.17
2018-07-17T20:55:17.221Z,98026.66
2018-07-17T20:56:20.129Z,98016.47
2018-07-17T20:58:31.743Z,98013.00
2018-07-17T20:59:34.582Z,98015.67
2018-07-17T21:00:38.204Z,98015.51
2018-07-17T21:01:41.672Z,98018.76
2018-07-17T21:02:47.665Z,97887.22
2018-07-17T21:03:50.241Z,98004.83
2018-07-17T21:04:53.505Z,98007.11
2018-07-17T21:05:56.273Z,98007.47
2018-07-17T21:07:02.247Z,98010.14
2018-07-17T21:08:05.535Z,98007.66
2018-07-17T21:09:08.955Z,98005.50
2018-07-17T21:10:16.246Z,98009.98
2018-07-17T21:11:18.904Z,98015.11
2018-07-17T21:12:21.498Z,98013.14
2018-07-17T21:13:25.314Z,98018.47
2018-07-17T21:14:28.337Z,98021.32
2018-07-17T21:15:30.924Z,98019.03
2018-07-17T21:16:33.448Z,98024.08
2018-07-17T21:17:36.028Z,98019.72
2018-07-17T21:18:39.219Z,98016.38
2018-07-17T21:19:44.271Z,98018.65
2018-07-17T21:20:46.814Z,98018.57
2018-07-17T21:21:52.754Z,98016.08
2018-07-17T21:22:58.221Z,98014.95
2018-07-17T21:25:11.611Z,98017.99
2018-07-17T21:27:25.011Z,97836.07
2018-07-17T21:28:28.157Z,98010.75
2018-07-17T21:29:30.712Z,98016.64
2018-07-17T21:30:33.537Z,98020.00
2018-07-17T21:31:36.858Z,98024.75
2018-07-17T21:32:39.850Z,98022.77
2018-07-17T21:33:42.428Z,98032.95
2018-07-17T21:35:56.185Z,98035.14
2018-07-17T21:36:58.726Z,98036.38
2018-07-17T21:38:01.285Z,98036.71
2018-07-17T21:39:04.191Z,98040.64
2018-07-17T21:40:06.748Z,98039.77
2018-07-17T21:41:10.472Z,98032.53
2018-07-17T21:42:15.194Z,98044.03
2018-07-17T21:44:29.539Z,98049.61
2018-07-17T21:45:36.670Z,98051.31
2018-07-17T21:46:39.696Z,98042.59
2018-07-17T21:47:43.336Z,98052.51
2018-07-17T21:48:51.361Z,98049.44
2018-07-17T21:49:56.438Z,98051.78
2018-07-17T21:52:07.146Z,98051.16
2018-07-17T21:53:09.678Z,98056.38
2018-07-17T21:54:13.280Z,98057.06
2018-07-17T21:55:16.563Z,98060.38